Time;durP1;ratioP1;P1;durP2;ratioP2;P2;SDS_P1;SDS_P2;PMS_P1;PMS_P2;Temp;Humidity;BMP_temperature;BMP_pressure;BME280_temperature;BME280_humidity;BME280_pressure;Samples;Min_cycle;Max_cycle;Signal;HPM_P1;HPM_P2
2022/03/11 00:02:24;;;;;;;9.30;5.13;;;1.30;99.90;;;;;;5105572;28;20188;-72
2022/03/11 00:04:49;;;;;;;8.50;4.90;;;1.20;99.90;;;;;;5102920;28;20625;-73
2022/03/11 00:07:15;;;;;;;8.00;4.80;;;1.20;99.90;;;;;;5105292;28;20643;-73
2022/03/11 00:09:41;;;;;;;9.03;5.07;;;1.10;99.90;;;;;;5105839;27;20187;-73
2022/03/11 00:12:09;;;;;;;9.27;4.83;;;1.00;99.90;;;;;;5105558;27;20177;-73
2022/03/11 00:14:35;;;;;;;8.37;5.30;;;1.00;99.90;;;;;;5104944;27;20203;-72
2022/03/11 00:17:02;;;;;;;7.87;4.63;;;0.80;99.90;;;;;;5107926;28;20543;-73
2022/03/11 00:19:28;;;;;;;8.37;5.10;;;0.80;99.90;;;;;;5105709;28;20735;-73
2022/03/11 00:21:55;;;;;;;7.77;4.80;;;0.60;99.90;;;;;;5105403;28;20176;-73
2022/03/11 00:24:21;;;;;;;7.70;4.60;;;0.70;99.90;;;;;;5104439;28;20204;-73
2022/03/11 00:26:47;;;;;;;8.53;5.00;;;0.70;99.90;;;;;;5105128;28;20514;-72
2022/03/11 00:29:12;;;;;;;7.40;4.27;;;0.80;99.90;;;;;;5105395;27;20228;-72
2022/03/11 00:31:38;;;;;;;8.27;5.00;;;0.90;99.90;;;;;;5087017;28;20228;-72
2022/03/11 00:34:03;;;;;;;8.57;5.20;;;0.90;99.90;;;;;;5084898;28;20180;-73
2022/03/11 00:36:29;;;;;;;8.20;4.80;;;0.90;99.90;;;;;;5105260;28;20243;-72
2022/03/11 00:38:55;;;;;;;8.73;5.03;;;1.00;99.90;;;;;;5105198;27;20200;-73
2022/03/11 00:41:20;;;;;;;7.97;5.00;;;1.00;99.90;;;;;;5105102;28;20795;-72
2022/03/11 00:43:46;;;;;;;7.73;4.70;;;1.00;99.90;;;;;;5104499;28;20182;-72
2022/03/11 00:46:11;;;;;;;7.67;4.87;;;1.00;99.90;;;;;;5106033;28;20225;-72
2022/03/11 00:48:37;;;;;;;7.10;4.40;;;1.00;99.90;;;;;;5105432;28;20184;-72
2022/03/11 00:51:03;;;;;;;9.17;4.77;;;0.90;99.90;;;;;;5105315;28;20650;-73
2022/03/11 00:53:28;;;;;;;8.10;4.63;;;0.90;99.90;;;;;;5104866;28;20184;-73
2022/03/11 00:55:55;;;;;;;9.10;5.43;;;0.80;99.90;;;;;;5105411;28;20200;-73
2022/03/11 00:58:21;;;;;;;8.40;5.40;;;0.80;99.90;;;;;;5105039;28;20286;-73
2022/03/11 01:00:46;;;;;;;9.60;5.00;;;0.80;99.90;;;;;;5105718;28;20333;-73
2022/03/11 01:03:13;;;;;;;8.47;5.03;;;0.80;99.90;;;;;;5105068;28;20612;-73
2022/03/11 01:05:38;;;;;;;7.30;5.17;;;0.70;99.90;;;;;;5104495;28;20196;-73
2022/03/11 01:08:04;;;;;;;7.70;4.83;;;0.60;99.90;;;;;;5104805;28;20649;-73
2022/03/11 01:10:30;;;;;;;9.57;5.10;;;0.70;99.90;;;;;;5104811;28;20191;-73
2022/03/11 01:12:56;;;;;;;8.90;5.53;;;0.60;99.90;;;;;;5104679;28;20519;-73
2022/03/11 01:15:22;;;;;;;8.60;4.83;;;0.60;99.90;;;;;;5086479;28;20241;-73
2022/03/11 01:17:47;;;;;;;7.87;4.93;;;0.50;99.90;;;;;;5104349;28;20215;-73
2022/03/11 01:20:13;;;;;;;8.23;5.27;;;0.50;99.90;;;;;;5105253;28;20184;-73
2022/03/11 01:22:39;;;;;;;9.40;5.60;;;0.50;99.90;;;;;;5104563;28;20199;-72
2022/03/11 01:25:06;;;;;;;8.07;4.97;;;0.50;99.90;;;;;;5104112;28;20698;-73
2022/03/11 01:27:32;;;;;;;12.63;5.87;;;0.50;99.90;;;;;;5104859;28;20629;-72
2022/03/11 01:29:58;;;;;;;8.80;4.67;;;0.40;99.90;;;;;;5104544;28;20184;-73
2022/03/11 01:32:24;;;;;;;9.37;5.17;;;0.30;99.90;;;;;;5105126;28;20196;-72
2022/03/11 01:34:49;;;;;;;6.67;5.13;;;0.40;99.90;;;;;;5103797;28;20215;-72
2022/03/11 01:37:15;;;;;;;7.90;5.03;;;0.40;99.90;;;;;;5104994;28;20200;-72
2022/03/11 01:39:41;;;;;;;9.23;5.03;;;0.30;99.90;;;;;;5104479;28;20207;-72
2022/03/11 01:42:07;;;;;;;11.37;5.77;;;0.20;99.90;;;;;;5104814;28;20271;-72
2022/03/11 01:44:33;;;;;;;7.23;4.57;;;0.20;99.90;;;;;;5103783;28;20217;-73
2022/03/11 01:46:59;;;;;;;9.57;5.07;;;0.20;99.90;;;;;;5104722;28;20184;-72
2022/03/11 01:49:25;;;;;;;8.13;4.57;;;0.10;99.90;;;;;;5104675;28;20626;-72
2022/03/11 01:51:52;;;;;;;9.50;5.10;;;0.10;99.90;;;;;;5105459;28;20180;-73
2022/03/11 01:54:18;;;;;;;10.80;5.23;;;0.10;99.90;;;;;;5107692;27;20187;-73
2022/03/11 01:56:43;;;;;;;8.80;4.97;;;0.00;99.90;;;;;;5108508;27;20180;-73
2022/03/11 01:59:11;;;;;;;9.97;5.30;;;0.00;99.90;;;;;;5090087;28;20686;-73
2022/03/11 02:01:37;;;;;;;9.50;5.10;;;0.00;99.90;;;;;;5107603;28;20180;-72
2022/03/11 02:04:04;;;;;;;8.37;5.07;;;-0.10;99.90;;;;;;5107346;28;20188;-73
2022/03/11 02:06:30;;;;;;;9.07;5.30;;;-0.10;99.90;;;;;;5108526;27;20179;-72
2022/03/11 02:08:56;;;;;;;9.60;5.27;;;-0.10;99.90;;;;;;5107761;27;20185;-72
2022/03/11 02:11:22;;;;;;;7.63;4.93;;;-0.10;99.90;;;;;;5108286;27;20180;-73
2022/03/11 02:13:49;;;;;;;7.17;5.00;;;-0.10;99.90;;;;;;5107772;27;20539;-73
2022/03/11 02:16:17;;;;;;;6.30;4.27;;;-0.20;99.90;;;;;;5108177;27;20204;-73
2022/03/11 02:18:43;;;;;;;6.80;4.77;;;-0.20;99.90;;;;;;5107859;28;20210;-73
2022/03/11 02:21:09;;;;;;;8.10;4.37;;;-0.20;99.90;;;;;;5108131;27;20623;-73
2022/03/11 02:23:52;;;;;;;7.83;5.07;;;-0.20;99.90;;;;;;5106914;27;20180;-72
2022/03/11 02:26:20;;;;;;;11.33;5.47;;;-0.20;99.90;;;;;;5107840;27;20781;-72
2022/03/11 02:28:47;;;;;;;8.40;5.47;;;-0.10;99.90;;;;;;5107809;28;20272;-72
2022/03/11 02:31:12;;;;;;;8.87;5.20;;;-0.20;99.90;;;;;;5107702;27;20652;-72
2022/03/11 02:33:39;;;;;;;7.37;5.17;;;-0.30;99.90;;;;;;5088726;28;20188;-73
2022/03/11 02:36:05;;;;;;;6.80;4.33;;;-0.30;99.90;;;;;;5107506;27;20623;-73
2022/03/11 02:38:31;;;;;;;9.83;5.40;;;-0.30;99.90;;;;;;5089374;28;20204;-73
2022/03/11 02:40:57;;;;;;;9.53;4.80;;;-0.40;99.90;;;;;;5107827;27;20173;-72
2022/03/11 02:43:24;;;;;;;7.33;4.70;;;-0.40;99.90;;;;;;5107093;28;20264;-75
2022/03/11 02:45:50;;;;;;;7.17;5.03;;;-0.40;99.90;;;;;;5107893;27;20208;-72
2022/03/11 02:48:15;;;;;;;9.57;4.97;;;-0.40;99.90;;;;;;5107301;28;20547;-73
2022/03/11 02:50:42;;;;;;;10.33;5.23;;;-0.40;99.90;;;;;;5108546;27;20187;-73
2022/03/11 02:53:07;;;;;;;9.07;5.57;;;-0.40;99.90;;;;;;5107921;27;20172;-73
2022/03/11 02:55:33;;;;;;;8.70;4.77;;;-0.50;99.90;;;;;;5107333;27;20200;-73
2022/03/11 02:57:59;;;;;;;9.23;5.43;;;-0.50;99.90;;;;;;5107188;27;20628;-73
2022/03/11 03:00:25;;;;;;;9.33;5.53;;;-0.50;99.90;;;;;;5107935;28;20662;-74
2022/03/11 03:02:52;;;;;;;10.00;5.47;;;-0.60;99.90;;;;;;5106884;28;20184;-74
2022/03/11 03:05:17;;;;;;;10.13;5.90;;;-0.50;99.90;;;;;;5106501;27;20196;-73
2022/03/11 03:07:43;;;;;;;10.03;5.50;;;-0.60;99.90;;;;;;5107442;28;20192;-73
2022/03/11 03:10:10;;;;;;;9.63;5.00;;;-0.60;99.90;;;;;;5107335;27;20655;-73
2022/03/11 03:12:39;;;;;;;9.57;5.27;;;-0.70;99.90;;;;;;5106724;28;20212;-73
2022/03/11 03:15:07;;;;;;;13.33;5.73;;;-0.70;99.90;;;;;;5106703;27;20283;-74
2022/03/11 03:17:32;;;;;;;9.00;5.67;;;-0.80;99.90;;;;;;5106657;27;20168;-73
2022/03/11 03:19:58;;;;;;;9.27;6.07;;;-0.80;99.90;;;;;;5106925;28;20252;-73
2022/03/11 03:22:23;;;;;;;9.20;5.80;;;-0.80;99.90;;;;;;5106907;28;20187;-73
2022/03/11 03:24:49;;;;;;;7.63;5.43;;;-0.90;99.90;;;;;;5106164;27;20203;-74
2022/03/11 03:27:16;;;;;;;9.73;6.00;;;-0.90;99.90;;;;;;5107035;27;20259;-73
2022/03/11 03:29:41;;;;;;;8.00;5.70;;;-0.90;99.90;;;;;;5106699;27;20199;-74
2022/03/11 03:32:08;;;;;;;9.83;5.53;;;-0.90;99.90;;;;;;5107150;27;20236;-73
2022/03/11 03:34:35;;;;;;;10.47;6.10;;;-0.90;99.90;;;;;;5105679;27;20634;-73
2022/03/11 03:37:03;;;;;;;8.10;5.77;;;-0.90;99.90;;;;;;5106605;27;20230;-73
2022/03/11 03:39:29;;;;;;;11.70;6.50;;;-0.90;99.90;;;;;;5106513;27;20191;-73
2022/03/11 03:41:56;;;;;;;8.63;5.30;;;-0.90;99.90;;;;;;5106326;28;20616;-73
2022/03/11 03:44:22;;;;;;;10.17;5.57;;;-1.00;99.90;;;;;;5105648;27;20192;-73
2022/03/11 03:46:49;;;;;;;10.70;5.80;;;-1.00;99.90;;;;;;5106703;27;20187;-73
2022/03/11 03:49:14;;;;;;;9.57;5.47;;;-1.00;99.90;;;;;;5093977;28;20294;-73
2022/03/11 03:51:41;;;;;;;10.60;6.00;;;-1.00;99.90;;;;;;5109074;28;20309;-73
2022/03/11 03:54:10;;;;;;;8.57;5.47;;;-1.00;99.90;;;;;;5087681;28;20248;-73
2022/03/11 03:56:36;;;;;;;9.37;5.60;;;-1.00;99.90;;;;;;5105857;28;20302;-73
2022/03/11 03:59:04;;;;;;;9.33;5.53;;;-1.10;99.90;;;;;;5106032;28;20184;-73
2022/03/11 04:01:35;;;;;;;10.57;5.83;;;-1.10;99.90;;;;;;5105117;27;20313;-73
2022/03/11 04:04:03;;;;;;;11.47;6.33;;;-1.10;99.90;;;;;;5104435;28;20188;-73
2022/03/11 04:06:29;;;;;;;9.50;5.87;;;-1.10;99.90;;;;;;5105322;28;20187;-73
2022/03/11 04:08:56;;;;;;;8.60;5.40;;;-1.10;99.90;;;;;;5105696;27;20674;-73
2022/03/11 04:11:26;;;;;;;9.97;5.80;;;-1.10;99.90;;;;;;5104784;28;20623;-73
2022/03/11 04:13:52;;;;;;;11.10;6.37;;;-1.10;99.90;;;;;;5103803;28;20575;-73
2022/03/11 04:16:18;;;;;;;8.63;5.60;;;-1.20;99.90;;;;;;5103925;28;20207;-73
2022/03/11 04:18:45;;;;;;;10.07;5.93;;;-1.20;99.90;;;;;;5104116;28;20353;-74
2022/03/11 04:21:11;;;;;;;9.00;5.30;;;-1.20;99.90;;;;;;5104224;28;20184;-73
2022/03/11 04:23:37;;;;;;;9.43;5.87;;;-1.20;99.90;;;;;;5104584;28;20228;-73
2022/03/11 04:26:03;;;;;;;10.37;5.43;;;-1.20;99.90;;;;;;5105645;28;20593;-73
2022/03/11 04:28:29;;;;;;;9.67;5.87;;;-1.30;99.90;;;;;;5105099;27;20192;-73
2022/03/11 04:30:54;;;;;;;10.23;6.20;;;-1.30;99.90;;;;;;5104868;27;20731;-73
2022/03/11 04:33:21;;;;;;;10.30;6.17;;;-1.30;99.90;;;;;;5104398;28;20230;-73
2022/03/11 04:35:47;;;;;;;10.57;6.20;;;-1.30;99.90;;;;;;5103864;28;20243;-73
2022/03/11 04:38:13;;;;;;;9.97;6.40;;;-1.30;99.90;;;;;;5104922;28;20242;-73
2022/03/11 04:40:38;;;;;;;11.10;6.50;;;-1.30;99.90;;;;;;5105336;27;20183;-73
2022/03/11 04:43:04;;;;;;;12.13;5.90;;;-1.40;99.90;;;;;;5104773;28;20330;-73
2022/03/11 04:45:30;;;;;;;8.23;5.70;;;-1.40;99.90;;;;;;5104956;27;20235;-74
2022/03/11 04:47:56;;;;;;;9.90;5.83;;;-1.40;99.90;;;;;;5086752;28;20220;-73
2022/03/11 04:50:22;;;;;;;9.60;5.97;;;-1.40;99.90;;;;;;5105551;28;20194;-73
2022/03/11 04:52:47;;;;;;;12.53;6.23;;;-1.40;99.90;;;;;;5104803;28;20180;-73
2022/03/11 04:55:15;;;;;;;9.47;6.00;;;-1.40;99.90;;;;;;5105098;28;20203;-73
2022/03/11 04:57:44;;;;;;;10.77;6.40;;;-1.40;99.90;;;;;;5104792;28;20203;-73
2022/03/11 05:00:11;;;;;;;10.40;5.80;;;-1.50;99.90;;;;;;5105304;28;20495;-73
2022/03/11 05:02:38;;;;;;;10.57;6.27;;;-1.50;99.90;;;;;;5104569;28;20176;-73
2022/03/11 05:05:05;;;;;;;11.43;6.57;;;-1.50;99.90;;;;;;5104462;28;20602;-73
2022/03/11 05:07:31;;;;;;;10.83;6.10;;;-1.60;99.90;;;;;;5105426;28;20172;-74
2022/03/11 05:09:57;;;;;;;8.80;6.00;;;-1.60;99.90;;;;;;5104573;28;20219;-73
2022/03/11 05:12:22;;;;;;;9.93;5.70;;;-1.60;99.90;;;;;;5104556;28;20184;-73
2022/03/11 05:14:51;;;;;;;13.20;6.10;;;-1.60;99.90;;;;;;5104250;28;20287;-74
2022/03/11 05:17:17;;;;;;;10.93;5.67;;;-1.60;99.90;;;;;;5105240;28;20223;-73
2022/03/11 05:19:44;;;;;;;9.33;5.50;;;-1.60;99.90;;;;;;5104790;28;20275;-73
2022/03/11 05:22:11;;;;;;;11.13;6.17;;;-1.60;99.90;;;;;;5104620;28;20690;-72
2022/03/11 05:24:37;;;;;;;10.20;6.03;;;-1.60;99.90;;;;;;5104039;28;20257;-73
2022/03/11 05:27:03;;;;;;;11.23;6.37;;;-1.60;99.90;;;;;;5105669;28;20176;-73
2022/03/11 05:29:33;;;;;;;8.93;6.03;;;-1.60;99.90;;;;;;5108866;27;20557;-73
2022/03/11 05:31:59;;;;;;;10.77;6.03;;;-1.50;99.90;;;;;;5109030;27;20254;-73
2022/03/11 05:34:25;;;;;;;9.80;5.57;;;-1.50;99.90;;;;;;5108128;27;20196;-73
2022/03/11 05:36:50;;;;;;;9.70;6.23;;;-1.60;99.90;;;;;;5108718;27;20718;-73
2022/03/11 05:39:16;;;;;;;9.83;5.30;;;-1.60;99.90;;;;;;5108693;27;20630;-73
2022/03/11 05:41:42;;;;;;;9.37;5.70;;;-1.60;99.90;;;;;;5108366;28;20176;-73
2022/03/11 05:44:08;;;;;;;10.93;5.83;;;-1.60;99.90;;;;;;5108160;27;20187;-73
2022/03/11 05:46:34;;;;;;;11.57;5.90;;;-1.60;99.90;;;;;;5108047;28;20552;-73
2022/03/11 05:49:00;;;;;;;10.23;6.10;;;-1.70;99.90;;;;;;5108237;27;20264;-73
2022/03/11 05:51:25;;;;;;;11.87;5.70;;;-1.70;99.90;;;;;;5089998;28;20511;-74
2022/03/11 05:53:51;;;;;;;10.50;6.10;;;-1.70;99.90;;;;;;5107838;28;20270;-73
2022/03/11 05:56:17;;;;;;;9.23;5.67;;;-1.80;99.90;;;;;;5107943;27;20204;-73
2022/03/11 05:58:42;;;;;;;11.40;6.90;;;-1.80;99.90;;;;;;5108448;27;20190;-74
2022/03/11 06:01:08;;;;;;;10.27;6.00;;;-1.80;99.90;;;;;;5108617;28;20267;-73
2022/03/11 06:03:34;;;;;;;10.83;6.00;;;-1.80;99.90;;;;;;5107700;28;20279;-73
2022/03/11 06:05:59;;;;;;;8.00;5.03;;;-1.80;99.90;;;;;;5108186;28;20287;-74
2022/03/11 06:08:25;;;;;;;11.60;6.33;;;-1.80;99.90;;;;;;5107819;28;20196;-73
2022/03/11 06:10:51;;;;;;;10.50;5.33;;;-1.80;99.90;;;;;;5105798;27;20221;-73
2022/03/11 06:13:17;;;;;;;9.57;5.83;;;-1.70;99.90;;;;;;5106983;27;20642;-74
2022/03/11 06:15:43;;;;;;;9.93;5.83;;;-1.70;99.90;;;;;;5107366;27;20265;-73
2022/03/11 06:18:10;;;;;;;11.57;5.90;;;-1.70;99.90;;;;;;5107312;28;20241;-73
2022/03/11 06:20:36;;;;;;;12.43;6.57;;;-1.70;99.90;;;;;;5107589;27;20666;-73
2022/03/11 06:23:02;;;;;;;9.30;5.63;;;-1.70;99.90;;;;;;5107253;28;20695;-74
2022/03/11 06:25:28;;;;;;;10.70;6.60;;;-1.70;99.90;;;;;;5106785;27;20226;-73
2022/03/11 06:27:54;;;;;;;12.33;6.03;;;-1.60;99.90;;;;;;5106678;28;20183;-73
2022/03/11 06:30:20;;;;;;;8.57;5.53;;;-1.60;99.90;;;;;;5106499;27;20196;-74
2022/03/11 06:32:48;;;;;;;10.07;5.70;;;-1.70;99.90;;;;;;5106951;28;20188;-74
2022/03/11 06:35:15;;;;;;;13.70;6.43;;;-1.60;99.90;;;;;;5107442;27;20200;-73
2022/03/11 06:37:41;;;;;;;10.70;5.90;;;-1.60;99.90;;;;;;5106582;27;20203;-73
2022/03/11 06:40:08;;;;;;;11.10;6.10;;;-1.50;99.90;;;;;;5105423;27;20180;-73
2022/03/11 06:42:42;;;;;;;9.10;5.43;;;-1.50;99.90;;;;;;5106838;28;20215;-73
2022/03/11 06:45:09;;;;;;;8.57;5.33;;;-1.50;99.90;;;;;;5101897;28;20508;-73
2022/03/11 06:47:35;;;;;;;10.30;5.30;;;-1.40;99.90;;;;;;5104437;28;20628;-74
2022/03/11 06:50:02;;;;;;;10.00;5.40;;;-1.30;99.90;;;;;;5085464;28;20207;-73
2022/03/11 06:52:27;;;;;;;10.50;5.77;;;-1.30;99.90;;;;;;5104465;28;20237;-74
2022/03/11 06:54:53;;;;;;;11.30;5.80;;;-1.30;99.90;;;;;;5099581;27;20204;-73
2022/03/11 06:57:19;;;;;;;11.33;5.00;;;-1.30;99.90;;;;;;5103752;28;20647;-74
2022/03/11 06:59:45;;;;;;;8.67;5.67;;;-1.20;99.90;;;;;;5105112;27;20206;-74
2022/03/11 07:02:10;;;;;;;8.57;5.73;;;-1.10;99.90;;;;;;5104712;27;20184;-74
2022/03/11 07:04:36;;;;;;;10.33;5.40;;;-1.10;99.90;;;;;;5101818;27;20246;-74
2022/03/11 07:07:03;;;;;;;11.13;5.27;;;-1.10;99.90;;;;;;5103717;27;20192;-74
2022/03/11 07:09:28;;;;;;;10.00;5.60;;;-1.00;99.90;;;;;;5103880;28;20251;-73
2022/03/11 07:11:57;;;;;;;10.53;5.87;;;-0.90;99.90;;;;;;5103710;27;20230;-73
2022/03/11 07:14:23;;;;;;;8.07;5.40;;;-0.80;99.90;;;;;;5103539;27;20204;-74
2022/03/11 07:16:52;;;;;;;10.10;6.07;;;-0.90;99.90;;;;;;5105216;27;20216;-74
2022/03/11 07:19:21;;;;;;;9.20;5.07;;;-0.80;99.90;;;;;;5104799;28;20271;-74
2022/03/11 07:21:47;;;;;;;8.13;5.27;;;-0.70;99.90;;;;;;5104402;27;20192;-75
2022/03/11 07:24:12;;;;;;;11.37;6.30;;;-0.70;99.90;;;;;;5103452;27;20680;-75
2022/03/11 07:26:38;;;;;;;10.10;5.40;;;-0.60;99.90;;;;;;5104337;27;20237;-73
2022/03/11 07:29:03;;;;;;;12.33;6.07;;;-0.50;99.90;;;;;;5103659;27;20551;-74
2022/03/11 07:31:29;;;;;;;9.53;5.90;;;-0.50;99.90;;;;;;5103781;27;20184;-75
2022/03/11 07:33:56;;;;;;;8.83;5.13;;;-0.50;99.90;;;;;;5100874;28;20271;-72
2022/03/11 07:36:22;;;;;;;10.87;5.37;;;-0.40;99.90;;;;;;5103298;28;20538;-76
2022/03/11 07:38:48;;;;;;;12.07;5.67;;;-0.30;99.90;;;;;;5103391;28;20199;-75
2022/03/11 07:41:15;;;;;;;9.77;6.00;;;-0.20;99.90;;;;;;5103075;27;20184;-73
2022/03/11 07:43:44;;;;;;;8.57;4.97;;;-0.20;99.90;;;;;;5102365;27;20196;-75
2022/03/11 07:46:14;;;;;;;10.00;4.63;;;-0.10;99.90;;;;;;5106962;27;20200;-75
2022/03/11 07:48:40;;;;;;;11.70;5.30;;;-0.10;99.90;;;;;;5103303;27;20567;-72
2022/03/11 07:51:06;;;;;;;10.43;5.43;;;0.00;99.90;;;;;;5085049;28;20334;-76
2022/03/11 07:53:32;;;;;;;7.90;4.70;;;0.10;99.90;;;;;;5102478;28;20482;-74
2022/03/11 07:55:58;;;;;;;7.27;4.50;;;0.20;99.90;;;;;;5103373;27;20230;-75
2022/03/11 07:58:24;;;;;;;7.97;5.57;;;0.20;99.90;;;;;;5103071;28;20262;-73
2022/03/11 08:00:50;;;;;;;11.73;5.03;;;0.30;99.90;;;;;;5103758;27;20245;-74
2022/03/11 08:03:16;;;;;;;7.10;4.90;;;0.40;99.90;;;;;;5100664;28;20981;-73
2022/03/11 08:05:42;;;;;;;7.97;5.03;;;0.50;99.90;;;;;;5104814;27;20200;-74
2022/03/11 08:08:08;;;;;;;9.23;4.83;;;0.50;99.90;;;;;;5103799;27;20172;-73
2022/03/11 08:10:36;;;;;;;8.60;4.60;;;0.60;99.90;;;;;;5086267;28;20526;-72
2022/03/11 08:13:02;;;;;;;9.23;5.37;;;0.60;99.90;;;;;;5103619;27;20176;-73
2022/03/11 08:15:29;;;;;;;11.37;5.17;;;0.70;99.90;;;;;;5103489;27;20200;-73
2022/03/11 08:17:55;;;;;;;7.57;4.83;;;0.80;99.90;;;;;;5104206;28;20267;-74
2022/03/11 08:20:21;;;;;;;8.67;4.20;;;0.90;99.90;;;;;;5103878;27;20295;-74
2022/03/11 08:22:48;;;;;;;7.17;4.40;;;0.90;99.90;;;;;;5103700;28;20531;-74
2022/03/11 08:25:15;;;;;;;9.07;4.50;;;1.00;99.90;;;;;;5103208;27;20318;-74
2022/03/11 08:27:41;;;;;;;10.57;5.27;;;1.00;99.90;;;;;;5103023;27;20184;-73
2022/03/11 08:30:09;;;;;;;9.23;5.30;;;1.20;99.90;;;;;;5103016;28;20272;-73
2022/03/11 08:32:34;;;;;;;9.00;5.37;;;1.20;99.90;;;;;;5103958;28;20164;-73
2022/03/11 08:35:00;;;;;;;7.67;4.30;;;1.30;99.90;;;;;;5103463;27;20226;-73
2022/03/11 08:37:26;;;;;;;8.50;4.57;;;1.40;99.90;;;;;;5104432;27;20192;-74
2022/03/11 08:39:52;;;;;;;5.63;4.10;;;1.50;99.90;;;;;;5104098;28;20183;-74
2022/03/11 08:42:17;;;;;;;7.77;4.37;;;1.60;99.90;;;;;;5103984;27;20266;-74
2022/03/11 08:44:43;;;;;;;6.80;4.33;;;1.70;99.90;;;;;;5102471;28;20215;-73
2022/03/11 08:47:09;;;;;;;8.00;4.73;;;1.70;99.90;;;;;;5104246;28;20215;-72
2022/03/11 08:49:35;;;;;;;11.47;4.60;;;1.80;99.90;;;;;;5103711;28;20251;-74
2022/03/11 08:52:01;;;;;;;9.83;4.27;;;2.00;99.90;;;;;;5104906;28;20491;-74
2022/03/11 08:54:26;;;;;;;7.87;4.30;;;2.10;99.90;;;;;;5101490;28;20655;-73
2022/03/11 08:56:53;;;;;;;11.93;5.27;;;2.10;99.90;;;;;;5102736;28;20181;-73
2022/03/11 08:59:19;;;;;;;7.90;4.40;;;2.00;99.90;;;;;;5102771;27;20183;-73
2022/03/11 09:01:44;;;;;;;7.43;4.47;;;2.10;99.90;;;;;;5102294;28;20175;-73
2022/03/11 09:04:10;;;;;;;7.63;4.80;;;2.10;99.90;;;;;;5099826;28;20188;-73
2022/03/11 09:06:35;;;;;;;8.90;4.47;;;2.20;99.90;;;;;;5102315;28;20209;-73
2022/03/11 09:09:01;;;;;;;12.33;4.27;;;2.40;99.90;;;;;;5083922;28;20200;-73
2022/03/11 09:11:27;;;;;;;15.50;4.87;;;2.50;99.90;;;;;;5084468;28;20609;-74
2022/03/11 09:13:53;;;;;;;11.13;4.73;;;2.60;99.90;;;;;;5101574;28;20209;-74
2022/03/11 09:16:19;;;;;;;7.43;4.30;;;2.70;99.90;;;;;;5103066;28;20232;-74
2022/03/11 09:18:45;;;;;;;8.03;4.20;;;2.70;99.90;;;;;;5104571;28;20214;-73
2022/03/11 09:21:12;;;;;;;5.60;3.87;;;2.70;99.90;;;;;;5103190;28;21251;-74
2022/03/11 09:23:39;;;;;;;7.40;4.50;;;2.90;99.90;;;;;;5101880;28;20232;-74
2022/03/11 09:26:04;;;;;;;9.70;4.30;;;3.00;99.80;;;;;;5104708;28;20204;-73
2022/03/11 09:28:31;;;;;;;11.37;4.83;;;3.00;98.80;;;;;;5105296;28;20199;-73
2022/03/11 09:30:57;;;;;;;10.13;4.40;;;3.20;99.50;;;;;;5104653;28;20172;-73
2022/03/11 09:33:23;;;;;;;10.93;4.40;;;3.30;98.80;;;;;;5103848;28;20219;-74
2022/03/11 09:35:49;;;;;;;9.83;4.60;;;3.30;98.00;;;;;;5105081;28;20231;-74
2022/03/11 09:38:15;;;;;;;6.13;4.03;;;3.40;97.40;;;;;;5104815;28;20188;-74
2022/03/11 09:40:43;;;;;;;8.63;4.63;;;3.60;97.40;;;;;;5105325;28;20176;-73
2022/03/11 09:43:10;;;;;;;12.37;4.63;;;3.70;96.00;;;;;;5104914;28;20259;-73
2022/03/11 09:45:36;;;;;;;10.70;4.73;;;3.80;95.70;;;;;;5104340;28;20199;-74
2022/03/11 09:48:02;;;;;;;12.87;4.60;;;3.90;94.40;;;;;;5104823;28;20206;-74
2022/03/11 09:50:28;;;;;;;8.03;4.40;;;3.90;94.70;;;;;;5104756;28;20384;-73
2022/03/11 09:52:55;;;;;;;10.30;4.17;;;4.00;93.60;;;;;;5104660;28;20716;-74
2022/03/11 09:55:21;;;;;;;7.27;4.37;;;4.10;94.10;;;;;;5103629;28;20203;-73
2022/03/11 09:57:46;;;;;;;13.87;4.50;;;4.30;93.00;;;;;;5104205;28;20176;-74
2022/03/11 10:00:12;;;;;;;9.70;4.33;;;4.40;91.90;;;;;;5105198;28;20223;-74
2022/03/11 10:02:50;;;;;;;6.70;4.30;;;4.50;91.10;;;;;;5103945;28;20589;-74
2022/03/11 10:05:17;;;;;;;10.60;4.10;;;4.40;90.10;;;;;;5104594;28;20222;-75
2022/03/11 10:07:43;;;;;;;6.77;4.10;;;4.50;90.20;;;;;;5104760;28;20532;-72
2022/03/11 10:10:16;;;;;;;11.03;4.50;;;4.70;89.60;;;;;;5104497;28;20329;-74
2022/03/11 10:12:43;;;;;;;5.47;3.67;;;4.80;89.10;;;;;;5104349;28;20208;-73
2022/03/11 10:15:10;;;;;;;6.37;4.07;;;4.80;87.20;;;;;;5107086;27;20196;-74
2022/03/11 10:17:41;;;;;;;10.47;4.03;;;4.90;87.30;;;;;;5107909;27;20466;-73
2022/03/11 10:20:09;;;;;;;9.77;3.73;;;4.90;83.10;;;;;;5108167;27;20459;-73
2022/03/11 10:22:35;;;;;;;8.40;3.93;;;4.90;82.30;;;;;;5108347;28;20168;-74
2022/03/11 10:25:09;;;;;;;11.33;4.10;;;5.00;81.30;;;;;;5107606;28;21111;-76
2022/03/11 10:27:58;;;;;;;7.57;4.07;;;5.00;82.50;;;;;;5107683;28;20236;-75
2022/03/11 10:30:25;;;;;;;6.80;3.80;;;5.00;80.80;;;;;;5109077;27;20210;-74
2022/03/11 10:32:55;;;;;;;15.13;4.03;;;5.20;81.90;;;;;;5108756;28;20168;-73
2022/03/11 10:35:47;;;;;;;8.57;3.70;;;5.30;80.40;;;;;;5107679;27;20671;-73
2022/03/11 10:38:18;;;;;;;6.27;3.63;;;5.30;79.20;;;;;;5109041;27;20188;-74
2022/03/11 10:40:59;;;;;;;10.47;3.63;;;5.40;79.20;;;;;;5094538;28;20176;-74
2022/03/11 10:43:27;;;;;;;6.53;4.50;;;5.50;79.20;;;;;;5108482;27;20606;-74
2022/03/11 10:46:01;;;;;;;11.37;4.20;;;5.60;79.80;;;;;;5109246;27;20535;-73
2022/03/11 10:48:54;;;;;;;7.37;4.07;;;5.80;80.10;;;;;;5108702;28;20202;-73
2022/03/11 10:51:22;;;;;;;8.20;4.20;;;6.00;77.40;;;;;;5104386;27;20570;-75
2022/03/11 10:53:49;;;;;;;10.13;4.60;;;5.90;78.80;;;;;;5108152;27;20172;-74
2022/03/11 10:56:25;;;;;;;8.33;4.50;;;6.10;77.60;;;;;;5108906;27;20200;-73
2022/03/11 10:58:51;;;;;;;10.30;4.47;;;6.00;74.50;;;;;;5111152;27;20244;-74
2022/03/11 11:01:51;;;;;;;24.60;4.87;;;6.00;75.00;;;;;;5095580;28;21078;-73
2022/03/11 11:04:18;;;;;;;9.60;4.13;;;6.10;75.10;;;;;;5110172;27;20183;-73
2022/03/11 11:06:47;;;;;;;7.57;4.03;;;6.10;73.50;;;;;;5108357;27;20183;-73
2022/03/11 11:09:15;;;;;;;6.73;3.90;;;6.20;74.00;;;;;;5109313;28;20211;-73
2022/03/11 11:11:44;;;;;;;9.57;3.70;;;6.20;72.40;;;;;;5108021;27;20172;-74
2022/03/11 11:14:11;;;;;;;10.13;4.20;;;6.30;71.40;;;;;;5108664;27;20168;-74
2022/03/11 11:16:40;;;;;;;8.00;4.37;;;6.20;71.20;;;;;;5108655;27;20265;-74
2022/03/11 11:19:13;;;;;;;6.80;4.00;;;6.50;73.80;;;;;;5108210;27;20172;-72
2022/03/11 11:21:41;;;;;;;8.87;4.10;;;6.60;73.60;;;;;;5107605;27;20200;-73
2022/03/11 11:24:20;;;;;;;10.47;5.07;;;6.70;71.80;;;;;;5108825;28;20525;-73
2022/03/11 11:26:48;;;;;;;10.60;4.10;;;6.70;69.60;;;;;;5107215;27;20184;-73
2022/03/11 11:29:18;;;;;;;6.00;3.53;;;6.60;68.30;;;;;;5105873;27;20274;-75
2022/03/11 11:31:45;;;;;;;6.17;3.60;;;6.50;67.40;;;;;;5107682;27;20706;-74
2022/03/11 11:34:23;;;;;;;8.00;4.07;;;6.70;68.60;;;;;;5110366;28;20187;-72
2022/03/11 11:36:49;;;;;;;9.17;4.40;;;6.70;68.00;;;;;;5096038;28;20590;-73
2022/03/11 11:39:39;;;;;;;7.07;3.40;;;6.70;68.40;;;;;;5114542;28;20201;-73
2022/03/11 11:45:15;;;;;;;6.67;3.87;;;6.80;68.10;;;;;;5086119;22;20239;-82
2022/03/11 11:47:41;;;;;;;8.67;3.90;;;7.00;67.40;;;;;;5077985;28;20187;-79
2022/03/11 11:50:16;;;;;;;8.13;4.00;;;7.00;65.90;;;;;;5078499;28;20208;-83
2022/03/11 11:52:54;;;;;;;5.63;3.73;;;6.90;67.40;;;;;;5073911;28;20196;-83
2022/03/11 11:55:21;;;;;;;9.13;3.90;;;7.00;67.30;;;;;;5077457;28;20176;-83
2022/03/11 11:57:48;;;;;;;9.00;3.90;;;7.20;67.20;;;;;;5079417;28;21014;-83
2022/03/11 12:00:37;;;;;;;5.27;3.70;;;7.20;67.50;;;;;;5076990;28;20182;-80
2022/03/11 12:03:10;;;;;;;5.77;3.57;;;7.20;65.80;;;;;;5076371;28;20291;-80
2022/03/11 12:05:41;;;;;;;5.07;3.57;;;7.20;65.20;;;;;;5092057;28;20177;-79
2022/03/11 12:08:07;;;;;;;6.63;3.73;;;7.30;66.70;;;;;;5077217;28;21006;-78
2022/03/11 12:10:32;;;;;;;8.97;3.90;;;7.40;64.80;;;;;;5076006;28;20205;-80
2022/03/11 12:13:01;;;;;;;7.80;3.87;;;7.50;66.10;;;;;;5076666;28;20204;-80
2022/03/11 12:15:31;;;;;;;6.60;3.93;;;7.60;65.10;;;;;;5077112;28;20212;-80
2022/03/11 12:18:00;;;;;;;12.37;4.23;;;7.70;65.90;;;;;;5077898;28;20230;-77
2022/03/11 12:20:38;;;;;;;7.80;3.87;;;7.60;63.30;;;;;;5075981;28;20247;-83
2022/03/11 12:23:06;;;;;;;6.67;4.10;;;7.60;62.70;;;;;;5076645;28;20240;-79
2022/03/11 12:25:49;;;;;;;9.43;3.73;;;7.60;62.90;;;;;;5076299;28;20174;-83
2022/03/11 12:28:25;;;;;;;6.17;3.33;;;7.60;62.80;;;;;;5078204;28;20184;-76
2022/03/11 12:30:50;;;;;;;10.37;4.40;;;7.60;62.50;;;;;;5085347;28;20433;-83
2022/03/11 12:33:37;;;;;;;11.40;3.60;;;7.70;63.60;;;;;;5090814;28;20192;-83
2022/03/11 12:36:07;;;;;;;13.50;3.80;;;7.80;62.90;;;;;;5086881;28;20181;-81
2022/03/11 12:38:37;;;;;;;8.17;3.90;;;7.70;62.00;;;;;;5089828;28;20255;-82
2022/03/11 12:41:32;;;;;;;9.33;3.70;;;7.90;62.50;;;;;;5084047;28;20192;-82
2022/03/11 12:44:10;;;;;;;6.87;4.03;;;7.80;60.10;;;;;;5092541;28;20237;-83
2022/03/11 12:46:36;;;;;;;5.27;3.43;;;7.80;60.00;;;;;;5090161;28;20197;-82
2022/03/11 12:49:01;;;;;;;5.53;3.90;;;7.90;60.70;;;;;;5089139;28;20295;-82
2022/03/11 12:51:27;;;;;;;10.73;4.20;;;8.00;62.50;;;;;;5089550;28;20212;-82
2022/03/11 12:53:53;;;;;;;6.53;3.77;;;8.00;61.90;;;;;;5085372;28;20575;-82